sensor_id;sensor_type;location;lat;lon;timestamp;P1;durP1;ratioP1;P2;durP2;ratioP2
73650;SDS011;61944;52.538;6.108;2023-12-22T00:02:04;20.27;;;2.90;;
73650;SDS011;61944;52.538;6.108;2023-12-22T00:04:30;12.60;;;2.75;;
73650;SDS011;61944;52.538;6.108;2023-12-22T00:06:55;15.82;;;2.92;;
73650;SDS011;61944;52.538;6.108;2023-12-22T00:09:20;8.32;;;2.42;;
73650;SDS011;61944;52.538;6.108;2023-12-22T00:11:46;19.58;;;3.22;;
73650;SDS011;61944;52.538;6.108;2023-12-22T00:14:11;7.43;;;1.65;;
73650;SDS011;61944;52.538;6.108;2023-12-22T00:16:37;14.02;;;3.30;;
73650;SDS011;61944;52.538;6.108;2023-12-22T00:19:03;14.50;;;3.55;;
73650;SDS011;61944;52.538;6.108;2023-12-22T00:21:28;10.48;;;3.28;;
73650;SDS011;61944;52.538;6.108;2023-12-22T00:23:54;10.10;;;2.88;;
73650;SDS011;61944;52.538;6.108;2023-12-22T00:26:19;12.30;;;1.70;;
73650;SDS011;61944;52.538;6.108;2023-12-22T00:28:45;11.02;;;2.03;;
73650;SDS011;61944;52.538;6.108;2023-12-22T00:31:10;8.05;;;2.17;;
73650;SDS011;61944;52.538;6.108;2023-12-22T00:33:37;8.35;;;1.90;;
73650;SDS011;61944;52.538;6.108;2023-12-22T00:36:03;6.07;;;2.28;;
73650;SDS011;61944;52.538;6.108;2023-12-22T00:38:29;6.97;;;2.58;;
73650;SDS011;61944;52.538;6.108;2023-12-22T00:40:54;19.48;;;2.70;;
73650;SDS011;61944;52.538;6.108;2023-12-22T00:43:20;4.95;;;2.58;;
73650;SDS011;61944;52.538;6.108;2023-12-22T00:45:45;9.25;;;3.35;;
73650;SDS011;61944;52.538;6.108;2023-12-22T00:48:11;6.68;;;2.10;;
73650;SDS011;61944;52.538;6.108;2023-12-22T00:50:36;7.18;;;2.13;;
73650;SDS011;61944;52.538;6.108;2023-12-22T00:53:01;10.85;;;2.50;;
73650;SDS011;61944;52.538;6.108;2023-12-22T00:55:27;10.68;;;2.75;;
73650;SDS011;61944;52.538;6.108;2023-12-22T00:57:52;8.75;;;2.60;;
73650;SDS011;61944;52.538;6.108;2023-12-22T01:00:18;9.77;;;2.45;;
73650;SDS011;61944;52.538;6.108;2023-12-22T01:02:43;12.98;;;2.67;;
73650;SDS011;61944;52.538;6.108;2023-12-22T01:05:09;16.52;;;2.25;;
73650;SDS011;61944;52.538;6.108;2023-12-22T01:07:35;8.52;;;1.98;;
73650;SDS011;61944;52.538;6.108;2023-12-22T01:10:00;9.35;;;2.47;;
73650;SDS011;61944;52.538;6.108;2023-12-22T01:12:28;16.17;;;3.30;;
73650;SDS011;61944;52.538;6.108;2023-12-22T01:14:54;5.10;;;1.70;;
73650;SDS011;61944;52.538;6.108;2023-12-22T01:17:20;14.20;;;3.88;;
73650;SDS011;61944;52.538;6.108;2023-12-22T01:19:45;10.30;;;2.70;;
73650;SDS011;61944;52.538;6.108;2023-12-22T01:22:11;8.55;;;2.30;;
73650;SDS011;61944;52.538;6.108;2023-12-22T01:24:36;10.23;;;3.22;;
73650;SDS011;61944;52.538;6.108;2023-12-22T01:27:04;11.02;;;2.60;;
73650;SDS011;61944;52.538;6.108;2023-12-22T01:29:30;6.55;;;2.50;;
73650;SDS011;61944;52.538;6.108;2023-12-22T01:31:55;14.35;;;1.92;;
73650;SDS011;61944;52.538;6.108;2023-12-22T01:34:20;9.73;;;2.25;;
73650;SDS011;61944;52.538;6.108;2023-12-22T01:36:45;12.38;;;2.72;;
73650;SDS011;61944;52.538;6.108;2023-12-22T01:39:11;12.10;;;2.60;;
73650;SDS011;61944;52.538;6.108;2023-12-22T01:41:36;12.70;;;2.63;;
73650;SDS011;61944;52.538;6.108;2023-12-22T01:44:01;9.85;;;2.70;;
73650;SDS011;61944;52.538;6.108;2023-12-22T01:46:27;12.48;;;2.33;;
73650;SDS011;61944;52.538;6.108;2023-12-22T01:48:53;10.02;;;2.50;;
73650;SDS011;61944;52.538;6.108;2023-12-22T01:51:18;11.05;;;2.00;;
73650;SDS011;61944;52.538;6.108;2023-12-22T01:53:44;14.93;;;3.65;;
73650;SDS011;61944;52.538;6.108;2023-12-22T01:56:11;10.93;;;1.60;;
73650;SDS011;61944;52.538;6.108;2023-12-22T01:58:36;3.45;;;1.50;;
73650;SDS011;61944;52.538;6.108;2023-12-22T02:01:02;11.88;;;2.25;;
73650;SDS011;61944;52.538;6.108;2023-12-22T02:03:28;9.00;;;1.63;;
73650;SDS011;61944;52.538;6.108;2023-12-22T02:05:55;10.27;;;1.92;;
73650;SDS011;61944;52.538;6.108;2023-12-22T02:08:20;8.93;;;2.53;;
73650;SDS011;61944;52.538;6.108;2023-12-22T02:10:48;6.65;;;1.63;;
73650;SDS011;61944;52.538;6.108;2023-12-22T02:13:13;5.13;;;1.45;;
73650;SDS011;61944;52.538;6.108;2023-12-22T02:15:39;3.92;;;0.85;;
73650;SDS011;61944;52.538;6.108;2023-12-22T02:18:06;4.28;;;1.02;;
73650;SDS011;61944;52.538;6.108;2023-12-22T02:20:35;5.80;;;1.23;;
73650;SDS011;61944;52.538;6.108;2023-12-22T02:23:01;5.47;;;1.00;;
73650;SDS011;61944;52.538;6.108;2023-12-22T02:25:27;3.88;;;1.33;;
73650;SDS011;61944;52.538;6.108;2023-12-22T02:27:59;2.88;;;1.10;;
73650;SDS011;61944;52.538;6.108;2023-12-22T02:30:39;8.77;;;1.40;;
73650;SDS011;61944;52.538;6.108;2023-12-22T02:33:13;7.22;;;1.25;;
73650;SDS011;61944;52.538;6.108;2023-12-22T02:35:40;3.53;;;1.42;;
73650;SDS011;61944;52.538;6.108;2023-12-22T02:38:07;8.20;;;1.42;;
73650;SDS011;61944;52.538;6.108;2023-12-22T02:40:34;7.93;;;1.20;;
73650;SDS011;61944;52.538;6.108;2023-12-22T02:43:00;7.63;;;1.77;;
73650;SDS011;61944;52.538;6.108;2023-12-22T02:45:26;10.90;;;1.83;;
73650;SDS011;61944;52.538;6.108;2023-12-22T02:47:52;5.38;;;2.20;;
73650;SDS011;61944;52.538;6.108;2023-12-22T02:50:17;8.55;;;1.52;;
73650;SDS011;61944;52.538;6.108;2023-12-22T02:52:43;6.63;;;1.60;;
73650;SDS011;61944;52.538;6.108;2023-12-22T02:55:08;11.88;;;2.03;;
73650;SDS011;61944;52.538;6.108;2023-12-22T02:57:33;10.82;;;2.83;;
73650;SDS011;61944;52.538;6.108;2023-12-22T02:59:59;10.70;;;1.77;;
73650;SDS011;61944;52.538;6.108;2023-12-22T03:02:24;9.38;;;2.08;;
73650;SDS011;61944;52.538;6.108;2023-12-22T03:04:50;12.18;;;1.80;;
73650;SDS011;61944;52.538;6.108;2023-12-22T03:07:15;13.63;;;1.98;;
73650;SDS011;61944;52.538;6.108;2023-12-22T03:09:41;11.18;;;2.20;;
73650;SDS011;61944;52.538;6.108;2023-12-22T03:12:07;10.65;;;2.05;;
73650;SDS011;61944;52.538;6.108;2023-12-22T03:14:33;4.50;;;2.05;;
73650;SDS011;61944;52.538;6.108;2023-12-22T03:16:59;11.68;;;2.60;;
73650;SDS011;61944;52.538;6.108;2023-12-22T03:19:25;10.40;;;2.50;;
73650;SDS011;61944;52.538;6.108;2023-12-22T03:21:50;7.85;;;2.20;;
73650;SDS011;61944;52.538;6.108;2023-12-22T03:24:16;6.82;;;1.75;;
73650;SDS011;61944;52.538;6.108;2023-12-22T03:26:41;12.38;;;2.88;;
73650;SDS011;61944;52.538;6.108;2023-12-22T03:29:06;8.43;;;1.73;;
73650;SDS011;61944;52.538;6.108;2023-12-22T03:31:32;11.98;;;2.78;;
73650;SDS011;61944;52.538;6.108;2023-12-22T03:33:57;6.30;;;1.25;;
73650;SDS011;61944;52.538;6.108;2023-12-22T03:36:22;4.78;;;1.10;;
73650;SDS011;61944;52.538;6.108;2023-12-22T03:38:48;4.30;;;1.48;;
73650;SDS011;61944;52.538;6.108;2023-12-22T03:41:13;8.23;;;1.30;;
73650;SDS011;61944;52.538;6.108;2023-12-22T03:43:38;5.82;;;1.38;;
73650;SDS011;61944;52.538;6.108;2023-12-22T03:46:04;10.02;;;1.63;;
73650;SDS011;61944;52.538;6.108;2023-12-22T03:48:29;5.90;;;1.63;;
73650;SDS011;61944;52.538;6.108;2023-12-22T03:50:54;8.18;;;1.83;;
73650;SDS011;61944;52.538;6.108;2023-12-22T03:53:20;9.25;;;1.88;;
73650;SDS011;61944;52.538;6.108;2023-12-22T03:55:45;10.38;;;1.88;;
73650;SDS011;61944;52.538;6.108;2023-12-22T03:58:11;10.95;;;2.72;;
73650;SDS011;61944;52.538;6.108;2023-12-22T04:00:36;5.47;;;1.45;;
73650;SDS011;61944;52.538;6.108;2023-12-22T04:03:02;12.75;;;2.20;;
73650;SDS011;61944;52.538;6.108;2023-12-22T04:05:27;4.10;;;1.88;;
73650;SDS011;61944;52.538;6.108;2023-12-22T04:07:53;12.45;;;2.35;;
73650;SDS011;61944;52.538;6.108;2023-12-22T04:10:18;20.88;;;2.88;;
73650;SDS011;61944;52.538;6.108;2023-12-22T04:12:44;10.63;;;2.25;;
73650;SDS011;61944;52.538;6.108;2023-12-22T04:15:09;14.35;;;2.90;;
73650;SDS011;61944;52.538;6.108;2023-12-22T04:17:35;11.48;;;2.85;;
73650;SDS011;61944;52.538;6.108;2023-12-22T04:20:00;8.45;;;2.38;;
73650;SDS011;61944;52.538;6.108;2023-12-22T04:22:26;17.45;;;2.80;;
73650;SDS011;61944;52.538;6.108;2023-12-22T04:24:51;14.05;;;2.00;;
73650;SDS011;61944;52.538;6.108;2023-12-22T04:27:16;16.48;;;2.78;;
73650;SDS011;61944;52.538;6.108;2023-12-22T04:29:41;21.23;;;3.35;;
73650;SDS011;61944;52.538;6.108;2023-12-22T04:32:07;21.05;;;3.22;;
73650;SDS011;61944;52.538;6.108;2023-12-22T04:34:32;21.88;;;2.80;;
73650;SDS011;61944;52.538;6.108;2023-12-22T04:36:57;13.23;;;4.25;;
73650;SDS011;61944;52.538;6.108;2023-12-22T04:39:23;11.43;;;3.10;;
73650;SDS011;61944;52.538;6.108;2023-12-22T04:41:48;6.88;;;2.35;;
73650;SDS011;61944;52.538;6.108;2023-12-22T04:44:14;15.32;;;2.45;;
73650;SDS011;61944;52.538;6.108;2023-12-22T04:46:39;12.00;;;3.05;;
73650;SDS011;61944;52.538;6.108;2023-12-22T04:49:04;11.32;;;3.00;;
73650;SDS011;61944;52.538;6.108;2023-12-22T04:51:30;16.90;;;3.25;;
73650;SDS011;61944;52.538;6.108;2023-12-22T04:53:55;16.40;;;3.60;;
73650;SDS011;61944;52.538;6.108;2023-12-22T04:56:20;11.45;;;2.28;;
73650;SDS011;61944;52.538;6.108;2023-12-22T04:58:46;11.32;;;3.10;;
73650;SDS011;61944;52.538;6.108;2023-12-22T05:01:12;9.55;;;2.03;;
73650;SDS011;61944;52.538;6.108;2023-12-22T05:03:37;12.43;;;3.55;;
73650;SDS011;61944;52.538;6.108;2023-12-22T05:06:03;12.07;;;1.98;;
73650;SDS011;61944;52.538;6.108;2023-12-22T05:08:29;19.95;;;2.92;;
73650;SDS011;61944;52.538;6.108;2023-12-22T05:10:54;14.13;;;2.42;;
73650;SDS011;61944;52.538;6.108;2023-12-22T05:13:19;14.75;;;3.45;;
73650;SDS011;61944;52.538;6.108;2023-12-22T05:15:45;11.52;;;2.47;;
73650;SDS011;61944;52.538;6.108;2023-12-22T05:18:10;10.55;;;1.95;;
73650;SDS011;61944;52.538;6.108;2023-12-22T05:20:36;13.07;;;2.58;;
73650;SDS011;61944;52.538;6.108;2023-12-22T05:23:01;10.80;;;3.40;;
73650;SDS011;61944;52.538;6.108;2023-12-22T05:25:27;13.82;;;2.70;;
73650;SDS011;61944;52.538;6.108;2023-12-22T05:27:52;19.45;;;3.08;;
73650;SDS011;61944;52.538;6.108;2023-12-22T05:30:17;6.25;;;2.58;;
73650;SDS011;61944;52.538;6.108;2023-12-22T05:32:43;14.07;;;2.60;;
73650;SDS011;61944;52.538;6.108;2023-12-22T05:35:09;18.77;;;3.72;;
73650;SDS011;61944;52.538;6.108;2023-12-22T05:37:35;20.00;;;3.50;;
73650;SDS011;61944;52.538;6.108;2023-12-22T05:40:01;12.60;;;3.22;;
73650;SDS011;61944;52.538;6.108;2023-12-22T05:42:26;9.98;;;2.58;;
73650;SDS011;61944;52.538;6.108;2023-12-22T05:44:52;16.48;;;2.67;;
73650;SDS011;61944;52.538;6.108;2023-12-22T05:47:17;14.68;;;2.20;;
73650;SDS011;61944;52.538;6.108;2023-12-22T05:49:43;13.27;;;3.03;;
73650;SDS011;61944;52.538;6.108;2023-12-22T05:52:08;11.70;;;3.38;;
73650;SDS011;61944;52.538;6.108;2023-12-22T05:54:34;23.83;;;3.75;;
73650;SDS011;61944;52.538;6.108;2023-12-22T05:57:00;17.10;;;3.72;;
73650;SDS011;61944;52.538;6.108;2023-12-22T05:59:25;26.50;;;3.45;;
73650;SDS011;61944;52.538;6.108;2023-12-22T06:01:55;11.60;;;2.88;;
73650;SDS011;61944;52.538;6.108;2023-12-22T06:04:21;14.52;;;2.88;;
73650;SDS011;61944;52.538;6.108;2023-12-22T06:06:46;13.10;;;3.38;;
73650;SDS011;61944;52.538;6.108;2023-12-22T06:09:11;16.88;;;3.20;;
73650;SDS011;61944;52.538;6.108;2023-12-22T06:11:38;7.22;;;2.60;;
73650;SDS011;61944;52.538;6.108;2023-12-22T06:14:04;21.33;;;3.65;;
73650;SDS011;61944;52.538;6.108;2023-12-22T06:16:30;13.00;;;4.20;;
73650;SDS011;61944;52.538;6.108;2023-12-22T06:18:56;17.48;;;2.38;;
73650;SDS011;61944;52.538;6.108;2023-12-22T06:21:21;13.25;;;2.70;;
73650;SDS011;61944;52.538;6.108;2023-12-22T06:23:47;11.10;;;2.35;;
73650;SDS011;61944;52.538;6.108;2023-12-22T06:26:12;15.63;;;3.53;;
73650;SDS011;61944;52.538;6.108;2023-12-22T06:28:37;13.07;;;2.13;;
73650;SDS011;61944;52.538;6.108;2023-12-22T06:31:05;16.75;;;2.72;;
73650;SDS011;61944;52.538;6.108;2023-12-22T06:33:34;13.77;;;3.50;;
73650;SDS011;61944;52.538;6.108;2023-12-22T06:35:59;8.38;;;2.28;;
73650;SDS011;61944;52.538;6.108;2023-12-22T06:38:24;16.23;;;3.58;;
73650;SDS011;61944;52.538;6.108;2023-12-22T06:40:49;9.45;;;2.95;;
73650;SDS011;61944;52.538;6.108;2023-12-22T06:43:15;9.85;;;2.25;;
73650;SDS011;61944;52.538;6.108;2023-12-22T06:45:41;15.57;;;2.60;;
73650;SDS011;61944;52.538;6.108;2023-12-22T06:48:06;9.27;;;2.47;;
73650;SDS011;61944;52.538;6.108;2023-12-22T06:50:32;12.80;;;2.10;;
73650;SDS011;61944;52.538;6.108;2023-12-22T06:52:57;12.57;;;3.17;;
73650;SDS011;61944;52.538;6.108;2023-12-22T06:55:23;9.85;;;2.38;;
73650;SDS011;61944;52.538;6.108;2023-12-22T06:57:48;17.38;;;2.65;;
73650;SDS011;61944;52.538;6.108;2023-12-22T07:00:14;9.07;;;1.67;;
73650;SDS011;61944;52.538;6.108;2023-12-22T07:02:40;9.40;;;2.40;;
73650;SDS011;61944;52.538;6.108;2023-12-22T07:07:34;11.63;;;2.30;;
73650;SDS011;61944;52.538;6.108;2023-12-22T07:10:00;14.55;;;3.42;;
73650;SDS011;61944;52.538;6.108;2023-12-22T07:12:25;6.10;;;2.30;;
73650;SDS011;61944;52.538;6.108;2023-12-22T07:14:51;8.32;;;2.03;;
73650;SDS011;61944;52.538;6.108;2023-12-22T07:17:16;9.10;;;2.97;;
73650;SDS011;61944;52.538;6.108;2023-12-22T07:19:41;12.23;;;2.33;;
73650;SDS011;61944;52.538;6.108;2023-12-22T07:22:07;7.13;;;1.75;;
73650;SDS011;61944;52.538;6.108;2023-12-22T07:24:32;9.88;;;2.22;;
73650;SDS011;61944;52.538;6.108;2023-12-22T07:26:57;7.53;;;1.30;;
73650;SDS011;61944;52.538;6.108;2023-12-22T07:29:23;12.75;;;2.20;;
73650;SDS011;61944;52.538;6.108;2023-12-22T07:31:48;12.43;;;2.00;;
73650;SDS011;61944;52.538;6.108;2023-12-22T07:34:15;7.35;;;1.63;;
73650;SDS011;61944;52.538;6.108;2023-12-22T07:36:41;9.00;;;1.38;;
73650;SDS011;61944;52.538;6.108;2023-12-22T07:39:07;6.85;;;1.45;;
73650;SDS011;61944;52.538;6.108;2023-12-22T07:41:34;7.97;;;1.75;;
73650;SDS011;61944;52.538;6.108;2023-12-22T07:43:59;10.13;;;1.38;;
73650;SDS011;61944;52.538;6.108;2023-12-22T07:46:26;5.18;;;1.40;;
73650;SDS011;61944;52.538;6.108;2023-12-22T07:48:53;3.33;;;1.58;;
73650;SDS011;61944;52.538;6.108;2023-12-22T07:51:18;6.45;;;1.55;;
73650;SDS011;61944;52.538;6.108;2023-12-22T07:53:44;5.47;;;1.40;;
73650;SDS011;61944;52.538;6.108;2023-12-22T07:56:09;6.63;;;2.58;;
73650;SDS011;61944;52.538;6.108;2023-12-22T07:58:35;3.78;;;1.25;;
73650;SDS011;61944;52.538;6.108;2023-12-22T08:01:01;2.75;;;1.10;;
73650;SDS011;61944;52.538;6.108;2023-12-22T08:03:27;8.63;;;2.63;;
73650;SDS011;61944;52.538;6.108;2023-12-22T08:05:53;7.97;;;1.50;;
73650;SDS011;61944;52.538;6.108;2023-12-22T08:08:19;5.65;;;1.40;;
73650;SDS011;61944;52.538;6.108;2023-12-22T08:10:44;15.57;;;2.88;;
73650;SDS011;61944;52.538;6.108;2023-12-22T08:13:09;9.52;;;1.58;;
73650;SDS011;61944;52.538;6.108;2023-12-22T08:15:35;16.25;;;1.73;;
73650;SDS011;61944;52.538;6.108;2023-12-22T08:18:00;15.57;;;1.90;;
73650;SDS011;61944;52.538;6.108;2023-12-22T08:20:25;17.98;;;2.15;;
73650;SDS011;61944;52.538;6.108;2023-12-22T08:22:50;6.80;;;1.45;;
73650;SDS011;61944;52.538;6.108;2023-12-22T08:25:16;8.38;;;1.63;;
73650;SDS011;61944;52.538;6.108;2023-12-22T08:27:45;8.27;;;2.33;;
73650;SDS011;61944;52.538;6.108;2023-12-22T08:30:11;12.00;;;3.30;;
73650;SDS011;61944;52.538;6.108;2023-12-22T08:32:37;8.88;;;1.58;;
73650;SDS011;61944;52.538;6.108;2023-12-22T08:35:03;11.55;;;2.70;;
73650;SDS011;61944;52.538;6.108;2023-12-22T08:37:29;10.57;;;2.42;;
73650;SDS011;61944;52.538;6.108;2023-12-22T08:39:55;9.82;;;1.90;;
73650;SDS011;61944;52.538;6.108;2023-12-22T08:42:20;8.27;;;1.65;;
73650;SDS011;61944;52.538;6.108;2023-12-22T08:44:47;10.32;;;1.90;;
73650;SDS011;61944;52.538;6.108;2023-12-22T08:47:12;7.53;;;1.95;;
73650;SDS011;61944;52.538;6.108;2023-12-22T08:49:38;10.93;;;1.77;;
73650;SDS011;61944;52.538;6.108;2023-12-22T08:52:03;9.55;;;1.70;;
73650;SDS011;61944;52.538;6.108;2023-12-22T08:54:29;13.55;;;2.15;;
73650;SDS011;61944;52.538;6.108;2023-12-22T08:56:55;7.10;;;2.50;;
73650;SDS011;61944;52.538;6.108;2023-12-22T08:59:20;6.95;;;1.60;;
73650;SDS011;61944;52.538;6.108;2023-12-22T09:01:46;7.32;;;1.98;;
73650;SDS011;61944;52.538;6.108;2023-12-22T09:04:11;7.20;;;1.63;;
73650;SDS011;61944;52.538;6.108;2023-12-22T09:06:37;4.07;;;1.25;;
73650;SDS011;61944;52.538;6.108;2023-12-22T09:09:02;8.60;;;2.70;;
73650;SDS011;61944;52.538;6.108;2023-12-22T09:11:29;9.10;;;2.35;;
73650;SDS011;61944;52.538;6.108;2023-12-22T09:13:54;12.93;;;2.65;;
73650;SDS011;61944;52.538;6.108;2023-12-22T09:16:21;8.82;;;1.98;;
73650;SDS011;61944;52.538;6.108;2023-12-22T09:18:47;8.73;;;1.77;;
73650;SDS011;61944;52.538;6.108;2023-12-22T09:21:12;13.88;;;3.00;;
73650;SDS011;61944;52.538;6.108;2023-12-22T09:23:38;12.85;;;2.10;;
73650;SDS011;61944;52.538;6.108;2023-12-22T09:26:03;4.35;;;1.63;;
73650;SDS011;61944;52.538;6.108;2023-12-22T09:28:29;10.65;;;2.10;;
73650;SDS011;61944;52.538;6.108;2023-12-22T09:30:55;5.72;;;1.77;;
73650;SDS011;61944;52.538;6.108;2023-12-22T09:33:20;3.33;;;1.60;;
73650;SDS011;61944;52.538;6.108;2023-12-22T09:35:47;11.55;;;2.05;;
73650;SDS011;61944;52.538;6.108;2023-12-22T09:38:13;7.82;;;2.63;;
73650;SDS011;61944;52.538;6.108;2023-12-22T09:40:38;10.02;;;2.65;;
73650;SDS011;61944;52.538;6.108;2023-12-22T09:43:04;11.90;;;2.40;;
73650;SDS011;61944;52.538;6.108;2023-12-22T09:45:32;7.25;;;1.75;;
73650;SDS011;61944;52.538;6.108;2023-12-22T09:47:59;5.35;;;1.45;;
73650;SDS011;61944;52.538;6.108;2023-12-22T09:50:25;4.05;;;1.52;;
73650;SDS011;61944;52.538;6.108;2023-12-22T09:52:51;4.53;;;1.33;;
73650;SDS011;61944;52.538;6.108;2023-12-22T09:55:17;5.82;;;1.98;;
73650;SDS011;61944;52.538;6.108;2023-12-22T09:57:43;4.05;;;0.80;;
73650;SDS011;61944;52.538;6.108;2023-12-22T10:00:11;2.90;;;1.30;;
73650;SDS011;61944;52.538;6.108;2023-12-22T10:02:39;4.35;;;1.27;;
73650;SDS011;61944;52.538;6.108;2023-12-22T10:05:06;2.80;;;1.00;;
73650;SDS011;61944;52.538;6.108;2023-12-22T10:07:32;5.70;;;0.95;;
73650;SDS011;61944;52.538;6.108;2023-12-22T10:09:59;4.65;;;1.75;;
73650;SDS011;61944;52.538;6.108;2023-12-22T10:12:25;6.15;;;1.02;;
73650;SDS011;61944;52.538;6.108;2023-12-22T10:14:52;3.80;;;1.08;;
73650;SDS011;61944;52.538;6.108;2023-12-22T10:17:19;4.97;;;1.10;;
73650;SDS011;61944;52.538;6.108;2023-12-22T10:19:44;2.38;;;1.08;;
73650;SDS011;61944;52.538;6.108;2023-12-22T10:22:10;3.97;;;1.10;;
73650;SDS011;61944;52.538;6.108;2023-12-22T10:24:45;3.38;;;1.15;;
73650;SDS011;61944;52.538;6.108;2023-12-22T10:27:15;5.18;;;0.90;;
73650;SDS011;61944;52.538;6.108;2023-12-22T10:29:47;1.65;;;0.50;;
73650;SDS011;61944;52.538;6.108;2023-12-22T10:32:22;3.92;;;0.65;;
73650;SDS011;61944;52.538;6.108;2023-12-22T10:34:48;3.40;;;0.88;;
73650;SDS011;61944;52.538;6.108;2023-12-22T10:37:15;0.98;;;0.82;;
73650;SDS011;61944;52.538;6.108;2023-12-22T10:39:41;4.50;;;0.70;;
73650;SDS011;61944;52.538;6.108;2023-12-22T10:42:06;3.55;;;1.45;;
73650;SDS011;61944;52.538;6.108;2023-12-22T10:44:32;3.30;;;1.10;;
73650;SDS011;61944;52.538;6.108;2023-12-22T10:46:58;1.83;;;1.00;;
73650;SDS011;61944;52.538;6.108;2023-12-22T10:49:25;3.78;;;0.95;;
73650;SDS011;61944;52.538;6.108;2023-12-22T10:51:51;6.18;;;1.20;;
73650;SDS011;61944;52.538;6.108;2023-12-22T10:54:17;1.15;;;0.70;;
73650;SDS011;61944;52.538;6.108;2023-12-22T10:56:44;1.05;;;0.80;;
73650;SDS011;61944;52.538;6.108;2023-12-22T10:59:09;2.28;;;0.70;;
73650;SDS011;61944;52.538;6.108;2023-12-22T11:01:38;0.60;;;0.45;;
73650;SDS011;61944;52.538;6.108;2023-12-22T11:04:07;2.67;;;0.95;;
73650;SDS011;61944;52.538;6.108;2023-12-22T11:06:35;4.45;;;1.48;;
73650;SDS011;61944;52.538;6.108;2023-12-22T11:09:03;3.05;;;0.77;;
73650;SDS011;61944;52.538;6.108;2023-12-22T11:11:34;1.10;;;0.68;;
73650;SDS011;61944;52.538;6.108;2023-12-22T11:14:01;2.95;;;0.80;;
73650;SDS011;61944;52.538;6.108;2023-12-22T11:16:28;2.75;;;0.90;;
73650;SDS011;61944;52.538;6.108;2023-12-22T11:18:54;2.15;;;0.70;;
73650;SDS011;61944;52.538;6.108;2023-12-22T11:21:23;5.72;;;0.80;;
73650;SDS011;61944;52.538;6.108;2023-12-22T11:23:50;2.28;;;0.50;;
73650;SDS011;61944;52.538;6.108;2023-12-22T11:26:20;3.58;;;1.00;;
73650;SDS011;61944;52.538;6.108;2023-12-22T11:28:46;4.03;;;0.90;;
73650;SDS011;61944;52.538;6.108;2023-12-22T11:31:13;3.78;;;0.77;;
73650;SDS011;61944;52.538;6.108;2023-12-22T11:33:40;1.95;;;0.50;;
73650;SDS011;61944;52.538;6.108;2023-12-22T11:36:17;2.03;;;0.65;;
73650;SDS011;61944;52.538;6.108;2023-12-22T11:38:44;3.53;;;0.90;;
73650;SDS011;61944;52.538;6.108;2023-12-22T11:41:12;3.10;;;0.65;;
73650;SDS011;61944;52.538;6.108;2023-12-22T11:43:42;3.13;;;0.75;;
73650;SDS011;61944;52.538;6.108;2023-12-22T11:46:09;0.70;;;0.45;;
73650;SDS011;61944;52.538;6.108;2023-12-22T11:48:34;0.65;;;0.50;;
73650;SDS011;61944;52.538;6.108;2023-12-22T11:51:02;2.42;;;0.80;;
73650;SDS011;61944;52.538;6.108;2023-12-22T11:53:38;1.30;;;0.45;;
73650;SDS011;61944;52.538;6.108;2023-12-22T11:56:04;4.35;;;0.90;;
73650;SDS011;61944;52.538;6.108;2023-12-22T11:58:43;1.25;;;0.60;;
73650;SDS011;61944;52.538;6.108;2023-12-22T12:01:16;6.32;;;0.90;;
73650;SDS011;61944;52.538;6.108;2023-12-22T12:03:53;2.35;;;0.75;;
73650;SDS011;61944;52.538;6.108;2023-12-22T12:08:56;6.32;;;0.98;;
73650;SDS011;61944;52.538;6.108;2023-12-22T12:11:23;4.70;;;0.80;;
73650;SDS011;61944;52.538;6.108;2023-12-22T12:13:49;6.20;;;1.10;;
73650;SDS011;61944;52.538;6.108;2023-12-22T12:16:19;0.60;;;0.57;;
73650;SDS011;61944;52.538;6.108;2023-12-22T12:18:49;2.38;;;0.98;;
73650;SDS011;61944;52.538;6.108;2023-12-22T12:21:15;1.42;;;0.60;;
73650;SDS011;61944;52.538;6.108;2023-12-22T12:23:41;2.97;;;0.63;;
73650;SDS011;61944;52.538;6.108;2023-12-22T12:26:07;1.92;;;0.75;;
73650;SDS011;61944;52.538;6.108;2023-12-22T12:28:33;3.72;;;0.98;;
73650;SDS011;61944;52.538;6.108;2023-12-22T12:31:01;1.80;;;0.65;;
73650;SDS011;61944;52.538;6.108;2023-12-22T12:33:29;2.33;;;0.82;;
73650;SDS011;61944;52.538;6.108;2023-12-22T12:35:56;3.28;;;1.63;;
73650;SDS011;61944;52.538;6.108;2023-12-22T12:38:23;3.85;;;0.43;;
73650;SDS011;61944;52.538;6.108;2023-12-22T12:41:03;1.17;;;0.60;;
73650;SDS011;61944;52.538;6.108;2023-12-22T12:43:30;1.52;;;0.55;;
73650;SDS011;61944;52.538;6.108;2023-12-22T12:46:02;3.53;;;0.75;;
73650;SDS011;61944;52.538;6.108;2023-12-22T12:48:29;4.65;;;0.47;;
73650;SDS011;61944;52.538;6.108;2023-12-22T12:50:54;3.22;;;0.65;;
73650;SDS011;61944;52.538;6.108;2023-12-22T12:53:20;5.28;;;1.33;;
73650;SDS011;61944;52.538;6.108;2023-12-22T12:55:45;4.95;;;0.52;;
73650;SDS011;61944;52.538;6.108;2023-12-22T12:58:11;0.73;;;0.47;;
73650;SDS011;61944;52.538;6.108;2023-12-22T13:00:36;3.58;;;0.52;;
73650;SDS011;61944;52.538;6.108;2023-12-22T13:03:02;3.92;;;1.02;;
73650;SDS011;61944;52.538;6.108;2023-12-22T13:05:29;3.83;;;0.90;;
73650;SDS011;61944;52.538;6.108;2023-12-22T13:08:08;1.92;;;0.50;;
73650;SDS011;61944;52.538;6.108;2023-12-22T13:10:37;2.40;;;0.60;;
73650;SDS011;61944;52.538;6.108;2023-12-22T13:13:03;0.60;;;0.60;;
73650;SDS011;61944;52.538;6.108;2023-12-22T13:15:29;1.40;;;0.85;;
73650;SDS011;61944;52.538;6.108;2023-12-22T13:17:55;5.93;;;1.15;;
73650;SDS011;61944;52.538;6.108;2023-12-22T13:20:20;2.70;;;0.95;;
73650;SDS011;61944;52.538;6.108;2023-12-22T13:22:46;1.75;;;0.60;;
73650;SDS011;61944;52.538;6.108;2023-12-22T13:25:11;1.13;;;0.57;;
73650;SDS011;61944;52.538;6.108;2023-12-22T13:27:46;2.53;;;0.77;;
73650;SDS011;61944;52.538;6.108;2023-12-22T13:30:14;7.95;;;1.77;;
73650;SDS011;61944;52.538;6.108;2023-12-22T13:32:39;0.88;;;0.63;;
73650;SDS011;61944;52.538;6.108;2023-12-22T13:35:05;3.65;;;0.85;;
73650;SDS011;61944;52.538;6.108;2023-12-22T13:37:30;2.20;;;0.50;;
73650;SDS011;61944;52.538;6.108;2023-12-22T13:39:56;1.67;;;1.00;;
73650;SDS011;61944;52.538;6.108;2023-12-22T13:42:22;4.40;;;1.23;;
73650;SDS011;61944;52.538;6.108;2023-12-22T13:44:49;3.20;;;1.00;;
73650;SDS011;61944;52.538;6.108;2023-12-22T13:47:15;0.90;;;0.55;;
73650;SDS011;61944;52.538;6.108;2023-12-22T13:49:42;2.13;;;0.80;;
73650;SDS011;61944;52.538;6.108;2023-12-22T13:52:16;5.15;;;0.85;;
73650;SDS011;61944;52.538;6.108;2023-12-22T13:54:50;4.00;;;0.82;;
73650;SDS011;61944;52.538;6.108;2023-12-22T13:57:22;2.42;;;0.80;;
73650;SDS011;61944;52.538;6.108;2023-12-22T13:59:47;1.10;;;1.00;;
73650;SDS011;61944;52.538;6.108;2023-12-22T14:02:13;3.92;;;0.93;;
73650;SDS011;61944;52.538;6.108;2023-12-22T14:04:39;2.40;;;0.85;;
73650;SDS011;61944;52.538;6.108;2023-12-22T14:07:04;0.60;;;0.60;;
73650;SDS011;61944;52.538;6.108;2023-12-22T14:09:29;4.03;;;1.20;;
73650;SDS011;61944;52.538;6.108;2023-12-22T14:11:58;4.20;;;1.27;;
73650;SDS011;61944;52.538;6.108;2023-12-22T14:14:23;8.23;;;2.70;;
73650;SDS011;61944;52.538;6.108;2023-12-22T14:16:49;7.28;;;1.48;;
73650;SDS011;61944;52.538;6.108;2023-12-22T14:19:14;8.20;;;1.77;;
73650;SDS011;61944;52.538;6.108;2023-12-22T14:21:39;6.60;;;1.85;;
73650;SDS011;61944;52.538;6.108;2023-12-22T14:24:05;10.48;;;1.95;;
73650;SDS011;61944;52.538;6.108;2023-12-22T14:26:30;8.80;;;1.73;;
73650;SDS011;61944;52.538;6.108;2023-12-22T14:28:56;11.30;;;2.95;;
73650;SDS011;61944;52.538;6.108;2023-12-22T14:31:21;12.57;;;2.42;;
73650;SDS011;61944;52.538;6.108;2023-12-22T14:33:47;11.25;;;2.53;;
73650;SDS011;61944;52.538;6.108;2023-12-22T14:36:12;12.02;;;2.63;;
73650;SDS011;61944;52.538;6.108;2023-12-22T14:38:37;14.05;;;2.28;;
73650;SDS011;61944;52.538;6.108;2023-12-22T14:41:03;10.45;;;2.10;;
73650;SDS011;61944;52.538;6.108;2023-12-22T14:43:28;19.85;;;3.17;;